Startpagina
METAR-TAF:

METAR-TAF

Vliegvelden :

Luchthaven Baia Mare

Baia Mare, Roemenië

breedte: 47-40N, lengte: 023-35E, hoogte: 218 m

Actueel weer

Dit bericht is 23 minuten geleden gemaakt, om 14:00 UTC
Wind 4 kt uit het oosten, variërend tussen het noorden en het zuidoosten
Temperatuur 30°C
Vochtigheid 33%
Druk 1017 hPa
Zicht 10 km of meer
Weinig wolken op 4500 ft

METAR: LRBM 181400Z 08004KT 360V140 9999 FEW045 30/12 Q1017

Tijdstip: 17:23 (14:23 UTC)

Verwachting

Dit bericht is 3 uur en het 23 minuten geleden gemaakt, om 11:00 UTC
Verwachting geldig van 18 om 12 UTC tot 18 om 21 UTC
Wind 6 kt uit het westnoordwesten
Zicht 10 km of meer
geen wolken onder 1500 m en geen cumulonimbus
Tijdelijke
van 18 om 12 UTC tot 18 om 16 UTC
Verspreide wolken op 4000 ft, Cumulonimbus.
Kans 40%
van 18 om 12 UTC tot 18 om 15 UTC
Wind 16 kt uit variabele richting
Zicht: 5000 m
onweer, lichte regen

TAF: LRBM 181100Z 1812/1821 30006KT CAVOK TEMPO 1812/1816 SCT040CB PROB40 1812/1815 VRB16KT 5000 -TSRA

Waarnemingen en weersverwachtingen van meer dan 4000 vliegvelden (METAR en TAF).

De beschikbare stations zijn de gele en rode punten op de kaart.

Ga met uw muis naar het station om de naam te zien.

Klik dan om waarnemingen en weersverwachtingen te zien.

kaart wijzigen: klik op de groene knoppen met een zwart kruis om in te zoomen, op de groene knop met een streepje om uit te zoomen of op de groene pijlen voor aangrenzende kaarten.


METAR-TAF: